Time;durP1;ratioP1;P1;durP2;ratioP2;P2;SDS_P1;SDS_P2;PMS_P1;PMS_P2;Temp;Humidity;BMP_temperature;BMP_pressure;BME280_temperature;BME280_humidity;BME280_pressure;Samples;Min_cycle;Max_cycle;Signal;HPM_P1;HPM_P2
2021/11/27 00:00:32;;;;;;;35.75;28.38;;;;;;;5.28;72.99;100098.16;2106039;28;20189;-63
2021/11/27 00:01:34;;;;;;;34.65;26.83;;;;;;;5.08;73.15;100077.97;2096837;28;20186;-62
2021/11/27 00:02:34;;;;;;;33.78;26.98;;;;;;;5.24;73.11;100099.41;2097234;28;20175;-63
2021/11/27 00:03:35;;;;;;;32.37;25.43;;;;;;;5.24;72.86;100097.41;2105744;28;20213;-63
2021/11/27 00:04:36;;;;;;;32.93;26.00;;;;;;;4.83;72.84;100035.50;2105837;28;20234;-62
2021/11/27 00:05:38;;;;;;;39.23;30.23;;;;;;;5.25;72.84;100111.94;2105972;28;20637;-62
2021/11/27 00:06:38;;;;;;;41.60;31.65;;;;;;;4.84;73.44;100037.84;2096998;28;20214;-62
2021/11/27 00:07:39;;;;;;;39.77;30.47;;;;;;;5.25;73.06;100093.50;2096512;28;20262;-62
2021/11/27 00:08:40;;;;;;;35.47;29.27;;;;;;;5.29;73.11;100109.94;2105977;28;20640;-61
2021/11/27 00:09:40;;;;;;;35.40;28.53;;;;;;;5.23;73.37;100092.34;2105484;28;20178;-62
2021/11/27 00:10:43;;;;;;;34.20;26.07;;;;;;;5.27;72.36;100099.34;2105973;28;20709;-62
2021/11/27 00:11:44;;;;;;;34.17;25.67;;;;;;;5.26;72.59;100088.78;2105944;28;20208;-62
2021/11/27 00:12:46;;;;;;;32.97;26.07;;;;;;;4.41;72.30;99959.84;2096866;28;20705;-62
2021/11/27 00:13:47;;;;;;;34.05;26.80;;;;;;;5.22;72.81;100088.81;2096912;28;20179;-62
2021/11/27 00:14:47;;;;;;;34.93;27.80;;;;;;;5.25;72.62;100096.25;2105904;28;20167;-62
2021/11/27 00:15:49;;;;;;;37.47;28.17;;;;;;;5.24;73.03;100099.41;2105978;28;20167;-62
2021/11/27 00:16:50;;;;;;;36.08;27.92;;;;;;;5.22;73.21;100091.56;2105798;28;20188;-62
2021/11/27 00:17:52;;;;;;;37.33;28.60;;;;;;;5.16;73.69;100082.22;2105562;28;20182;-62
2021/11/27 00:18:52;;;;;;;39.03;28.98;;;;;;;4.82;73.64;100037.44;2105886;28;20171;-61
2021/11/27 00:19:53;;;;;;;36.03;28.40;;;;;;;5.17;73.75;100091.22;2105498;28;20206;-62
2021/11/27 00:20:59;;;;;;;32.80;26.03;;;;;;;5.17;73.63;100104.94;2105913;28;20198;-62
2021/11/27 00:22:00;;;;;;;34.15;27.27;;;;;;;5.18;73.41;100098.28;2105842;28;20529;-61
2021/11/27 00:23:00;;;;;;;34.13;26.77;;;;;;;5.14;73.15;100092.81;2105885;28;20458;-62
2021/11/27 00:24:01;;;;;;;39.80;30.17;;;;;;;5.09;73.26;100093.28;2105829;28;20231;-62
2021/11/27 00:25:03;;;;;;;37.77;29.63;;;;;;;4.40;73.27;99991.22;2105808;28;20193;-62
2021/11/27 00:26:07;;;;;;;36.75;26.92;;;;;;;5.04;73.49;100092.94;2105946;28;20166;-62
2021/11/27 00:27:08;;;;;;;32.28;25.55;;;;;;;4.99;72.81;100088.69;2105894;28;20671;-62
2021/11/27 00:28:09;;;;;;;32.17;25.57;;;;;;;4.87;72.89;100080.16;2105272;28;20343;-62
2021/11/27 00:29:10;;;;;;;33.47;26.17;;;;;;;4.79;72.38;100084.16;2105328;28;20289;-62
2021/11/27 00:30:15;;;;;;;32.15;26.20;;;;;;;4.74;71.86;100071.66;2105865;28;20177;-62
2021/11/27 00:31:20;;;;;;;34.85;27.65;;;;;;;4.78;73.06;100085.34;2105693;28;20667;-62
2021/11/27 00:32:20;;;;;;;35.72;29.25;;;;;;;4.62;73.68;100057.66;2105889;28;20220;-62
2021/11/27 00:33:21;;;;;;;39.13;30.07;;;;;;;4.75;73.83;100078.69;2105012;28;20167;-62
2021/11/27 00:34:21;;;;;;;37.77;30.03;;;;;;;4.76;73.84;100085.75;2105569;28;20182;-62
2021/11/27 00:35:23;;;;;;;33.43;26.97;;;;;;;4.75;74.12;100091.63;2105692;28;20236;-62
2021/11/27 00:36:24;;;;;;;31.10;26.25;;;;;;;4.76;73.68;100087.69;2105806;28;20186;-62
2021/11/27 00:37:25;;;;;;;39.80;28.23;;;;;;;4.75;73.47;100083.41;2105701;28;20505;-62
2021/11/27 00:38:26;;;;;;;38.37;28.30;;;;;;;4.66;73.30;100059.19;2105455;28;20567;-62
2021/11/27 00:39:27;;;;;;;40.15;29.40;;;;;;;4.77;73.76;100059.09;2105325;28;20358;-62
2021/11/27 00:40:29;;;;;;;40.45;29.25;;;;;;;4.69;74.54;100049.34;2105600;28;20181;-62
2021/11/27 00:41:29;;;;;;;36.67;27.90;;;;;;;4.70;73.90;100042.66;2105832;28;20174;-62
2021/11/27 00:42:30;;;;;;;36.77;28.37;;;;;;;4.68;74.33;100034.06;2105834;28;20180;-62
2021/11/27 00:43:31;;;;;;;39.50;29.40;;;;;;;4.65;74.49;100032.13;2105591;28;20215;-62
2021/11/27 00:44:32;;;;;;;39.22;28.23;;;;;;;4.68;74.57;100050.53;2105727;28;20174;-62
2021/11/27 00:45:32;;;;;;;35.87;27.77;;;;;;;4.32;74.05;100006.16;2105764;28;20232;-62
2021/11/27 00:46:33;;;;;;;35.60;27.40;;;;;;;3.80;74.14;99913.41;2105856;28;20211;-62
2021/11/27 00:47:33;;;;;;;37.93;28.77;;;;;;;4.64;73.79;100041.56;2105377;28;20174;-62
2021/11/27 00:48:34;;;;;;;36.70;28.13;;;;;;;4.70;74.01;100059.94;2105643;28;20178;-63
2021/11/27 00:49:35;;;;;;;35.50;27.53;;;;;;;4.75;73.72;100036.75;2105170;28;20246;-62
2021/11/27 00:50:43;;;;;;;37.90;27.63;;;;;;;4.77;73.93;100026.91;2105775;28;20214;-62
2021/11/27 00:51:44;;;;;;;37.50;28.33;;;;;;;4.72;74.04;100023.84;2105700;28;20171;-62
2021/11/27 00:52:45;;;;;;;38.47;28.67;;;;;;;4.68;74.27;100023.88;2105843;28;20159;-62
2021/11/27 00:55:07;;;;;;;37.50;28.65;;;;;;;4.65;74.29;100030.19;2105840;28;20248;-62
2021/11/27 00:56:08;;;;;;;34.28;26.83;;;;;;;4.66;74.15;100026.25;2105570;28;20190;-62
2021/11/27 00:57:08;;;;;;;31.92;25.38;;;;;;;4.66;73.56;100023.50;2096596;28;20215;-61
2021/11/27 00:58:09;;;;;;;41.77;29.43;;;;;;;4.11;73.71;99939.78;2096143;28;20710;-62
2021/11/27 00:59:10;;;;;;;36.83;27.83;;;;;;;4.65;73.92;100019.19;2102334;28;20675;-62
2021/11/27 01:00:15;;;;;;;40.20;29.87;;;;;;;4.67;74.27;100019.56;2096482;28;20666;-62
2021/11/27 01:01:23;;;;;;;41.78;29.08;;;;;;;4.70;74.19;100023.47;2096735;28;20639;-62
2021/11/27 01:02:23;;;;;;;37.33;28.27;;;;;;;4.60;74.31;100005.13;2095453;28;20210;-62
2021/11/27 01:03:28;;;;;;;37.30;26.33;;;;;;;4.55;73.78;99997.34;2096584;28;20653;-62
2021/11/27 01:04:28;;;;;;;37.22;27.42;;;;;;;4.73;73.67;100034.41;2105194;28;20234;-62
2021/11/27 01:05:31;;;;;;;36.97;27.43;;;;;;;4.74;73.88;100035.19;2105642;28;20258;-62
2021/11/27 01:06:32;;;;;;;35.85;28.27;;;;;;;4.75;73.92;100043.03;2105691;28;20178;-62
2021/11/27 01:07:33;;;;;;;32.50;26.30;;;;;;;4.76;74.10;100032.81;2105096;28;20174;-62
2021/11/27 01:08:34;;;;;;;43.77;28.50;;;;;;;4.78;73.59;100033.19;2105354;28;20179;-62
2021/11/27 01:09:34;;;;;;;44.28;30.80;;;;;;;4.73;74.22;100017.16;2105250;28;20242;-62
2021/11/27 01:10:42;;;;;;;71.67;36.57;;;;;;;4.56;74.39;99983.22;2105561;28;20170;-62
2021/11/27 01:11:48;;;;;;;52.00;33.95;;;;;;;4.83;74.15;100030.00;2105573;28;20250;-62
2021/11/27 01:12:49;;;;;;;47.83;32.75;;;;;;;4.85;74.03;100025.66;2105535;28;20155;-62
2021/11/27 01:13:56;;;;;;;53.63;32.80;;;;;;;4.86;74.11;100024.47;2105628;28;20577;-62
2021/11/27 01:14:57;;;;;;;51.92;34.22;;;;;;;4.88;74.47;100021.31;2105356;28;20232;-62
2021/11/27 01:16:00;;;;;;;62.20;33.47;;;;;;;4.89;74.41;100022.88;2105658;28;20170;-62
2021/11/27 01:17:05;;;;;;;50.28;29.67;;;;;;;4.87;74.50;100019.78;2105260;28;20206;-62
2021/11/27 01:18:06;;;;;;;118.28;33.75;;;;;;;4.86;74.72;100034.66;2105214;28;20166;-62
2021/11/27 01:19:08;;;;;;;41.67;29.58;;;;;;;4.82;74.78;100028.47;2105383;28;20202;-62
2021/11/27 01:20:10;;;;;;;41.50;28.85;;;;;;;4.90;74.48;100058.16;2105271;28;20257;-62
2021/11/27 01:21:14;;;;;;;68.30;32.28;;;;;;;4.93;74.26;100068.31;2105420;28;20182;-62
2021/11/27 01:22:18;;;;;;;67.82;29.23;;;;;;;4.37;73.35;99974.78;2105217;28;20572;-62
2021/11/27 01:23:20;;;;;;;67.85;26.70;;;;;;;4.89;72.64;100064.06;2105429;28;20206;-62
2021/11/27 01:24:21;;;;;;;119.57;28.15;;;;;;;4.90;72.67;100071.91;2105417;28;20611;-62
2021/11/27 01:25:22;;;;;;;193.67;30.10;;;;;;;4.86;71.87;100071.16;2105405;28;20259;-62
2021/11/27 01:26:23;;;;;;;146.20;31.83;;;;;;;4.85;71.32;100074.28;2105493;28;20432;-62
2021/11/27 01:27:26;;;;;;;203.18;31.60;;;;;;;4.80;71.73;100075.53;2105401;28;20268;-62
2021/11/27 01:28:26;;;;;;;79.38;28.98;;;;;;;4.45;71.95;100044.84;2105112;28;20614;-62
2021/11/27 01:29:28;;;;;;;67.07;30.90;;;;;;;4.80;72.46;100075.53;2104986;28;20275;-62
2021/11/27 01:30:28;;;;;;;88.57;31.48;;;;;;;4.78;71.97;100074.38;2096476;28;20263;-62
2021/11/27 01:31:29;;;;;;;102.50;31.33;;;;;;;4.77;72.03;100072.81;2096504;28;20194;-62
2021/11/27 01:32:30;;;;;;;123.77;32.20;;;;;;;4.74;72.17;100068.13;2105556;28;20185;-62
2021/11/27 01:33:31;;;;;;;138.20;32.73;;;;;;;4.73;72.65;100075.56;2105359;28;20192;-61
2021/11/27 01:34:32;;;;;;;98.60;31.65;;;;;;;4.76;72.78;100074.75;2105294;28;20180;-62
2021/11/27 01:35:33;;;;;;;191.97;32.50;;;;;;;4.75;72.62;100072.41;2105449;28;20204;-61
2021/11/27 01:36:35;;;;;;;140.50;32.90;;;;;;;3.73;72.45;99910.69;2105443;28;20200;-62
2021/11/27 01:37:35;;;;;;;103.28;31.90;;;;;;;4.68;72.33;100070.53;2104876;28;20708;-62
2021/11/27 01:38:36;;;;;;;300.53;32.33;;;;;;;4.20;72.55;99992.19;2105337;28;20600;-62
2021/11/27 01:39:38;;;;;;;166.80;32.40;;;;;;;4.67;72.50;100073.69;2104999;28;20168;-62
2021/11/27 01:40:39;;;;;;;134.20;34.05;;;;;;;4.68;72.75;100067.78;2105265;28;20173;-62
2021/11/27 01:41:40;;;;;;;89.88;32.35;;;;;;;4.68;72.78;100069.75;2105376;28;20161;-61
2021/11/27 01:42:42;;;;;;;185.40;33.53;;;;;;;4.32;72.86;100025.34;2105452;28;20206;-62
2021/11/27 01:43:45;;;;;;;333.40;34.65;;;;;;;3.92;72.89;99948.53;2105359;28;20163;-62
2021/11/27 01:44:46;;;;;;;299.60;32.95;;;;;;;4.64;72.83;100064.31;2105594;28;20178;-61
2021/11/27 01:45:46;;;;;;;146.77;32.90;;;;;;;3.71;73.08;99932.25;2107098;28;20260;-61
2021/11/27 01:46:47;;;;;;;172.70;34.30;;;;;;;4.62;73.04;100063.91;2107072;28;20238;-63
2021/11/27 01:47:58;;;;;;;110.27;32.53;;;;;;;4.58;73.20;100054.16;2106586;28;20663;-62
2021/11/27 01:48:58;;;;;;;152.35;32.42;;;;;;;4.44;74.12;100046.84;2107047;28;20616;-61
2021/11/27 01:49:59;;;;;;;129.37;32.33;;;;;;;4.48;73.30;100035.81;2106857;28;20181;-61
2021/11/27 01:51:09;;;;;;;272.23;35.27;;;;;;;4.63;73.65;100056.47;2106991;28;20267;-62
2021/11/27 01:52:10;;;;;;;82.97;32.35;;;;;;;3.87;74.31;99946.22;2106926;28;20168;-61
2021/11/27 01:53:12;;;;;;;140.63;33.07;;;;;;;4.41;74.29;100030.41;2106871;28;20172;-62
2021/11/27 01:54:14;;;;;;;96.03;33.78;;;;;;;4.44;74.08;100052.31;2098037;28;20182;-62
2021/11/27 01:55:14;;;;;;;87.30;33.58;;;;;;;4.50;74.70;100049.91;2097728;28;20556;-62
2021/11/27 01:56:19;;;;;;;66.47;33.23;;;;;;;4.53;74.68;100052.66;2098691;28;20212;-62
2021/11/27 01:57:20;;;;;;;134.15;31.85;;;;;;;3.77;74.42;99942.41;2105092;28;20186;-62
2021/11/27 01:58:21;;;;;;;81.10;32.73;;;;;;;4.54;74.02;100065.16;2106570;28;20642;-61
2021/11/27 01:59:23;;;;;;;46.33;31.38;;;;;;;4.60;73.49;100076.47;2106466;28;20191;-62
2021/11/27 02:00:29;;;;;;;39.47;30.02;;;;;;;4.65;74.21;100079.56;2106980;28;20160;-62
2021/11/27 02:01:32;;;;;;;40.03;30.80;;;;;;;4.72;74.25;100087.72;2106861;28;20603;-62
2021/11/27 02:02:33;;;;;;;37.35;28.42;;;;;;;4.73;74.24;100081.06;2107008;28;20658;-62
2021/11/27 02:03:34;;;;;;;38.25;29.98;;;;;;;4.73;74.53;100077.56;2106880;28;20199;-62
2021/11/27 02:04:35;;;;;;;39.40;29.07;;;;;;;4.73;74.00;100072.06;2106755;28;20222;-61
2021/11/27 02:05:36;;;;;;;40.70;29.40;;;;;;;4.71;74.78;100072.47;2106689;28;20196;-61
2021/11/27 02:06:38;;;;;;;37.30;28.63;;;;;;;4.72;74.42;100074.00;2107002;28;20186;-62
2021/11/27 02:07:40;;;;;;;40.00;29.55;;;;;;;4.79;74.19;100075.91;2106459;28;20173;-62
2021/11/27 02:08:41;;;;;;;36.75;28.27;;;;;;;4.83;74.33;100074.69;2106914;28;20663;-62
2021/11/27 02:09:42;;;;;;;37.63;29.00;;;;;;;4.85;74.71;100066.84;2106315;28;20629;-62
2021/11/27 02:10:44;;;;;;;37.13;28.02;;;;;;;4.65;74.33;100035.66;2107007;28;20232;-61
2021/11/27 02:11:46;;;;;;;38.72;29.25;;;;;;;4.88;73.97;100055.03;2106849;28;20566;-61
2021/11/27 02:12:48;;;;;;;34.97;27.80;;;;;;;4.94;74.49;100056.16;2107002;28;20178;-62
2021/11/27 02:13:49;;;;;;;37.22;28.60;;;;;;;4.62;74.21;100008.25;2106848;28;20231;-62
2021/11/27 02:14:49;;;;;;;38.35;28.52;;;;;;;5.04;74.12;100057.25;2106990;28;20173;-62
2021/11/27 02:15:51;;;;;;;37.13;28.83;;;;;;;5.05;74.39;100039.56;2106657;28;20703;-62
2021/11/27 02:16:51;;;;;;;36.95;28.63;;;;;;;5.10;74.19;100028.13;2106853;28;20282;-62
2021/11/27 02:17:52;;;;;;;36.20;28.80;;;;;;;5.07;74.90;100012.50;2106355;28;20635;-62
2021/11/27 02:18:53;;;;;;;39.87;28.87;;;;;;;5.11;74.53;100019.50;2107115;28;20253;-62
2021/11/27 02:19:54;;;;;;;39.87;29.63;;;;;;;4.61;74.84;99932.63;2106432;28;20213;-61
2021/11/27 02:21:07;;;;;;;36.90;29.23;;;;;;;5.15;74.75;100022.97;2097797;28;20576;-62
2021/11/27 02:22:08;;;;;;;41.05;30.30;;;;;;;5.17;74.67;100028.03;2099669;28;20161;-62
2021/11/27 02:23:09;;;;;;;41.25;30.25;;;;;;;5.20;74.74;100032.72;2106735;28;20271;-62
2021/11/27 02:24:11;;;;;;;44.30;31.67;;;;;;;5.20;75.32;100022.53;2106837;28;20284;-62
2021/11/27 02:25:15;;;;;;;40.50;31.20;;;;;;;5.20;75.32;100032.72;2106649;28;20237;-62
2021/11/27 02:26:19;;;;;;;40.30;31.25;;;;;;;5.24;75.34;100042.47;2106887;28;20179;-61
2021/11/27 02:27:19;;;;;;;39.38;29.98;;;;;;;5.19;75.55;100037.44;2106745;28;20188;-62
2021/11/27 02:28:20;;;;;;;38.47;30.73;;;;;;;4.50;75.09;99927.22;2097302;28;20276;-62
2021/11/27 02:29:25;;;;;;;39.67;29.47;;;;;;;5.37;75.20;100046.25;2097594;28;20161;-61
2021/11/27 02:30:27;;;;;;;36.97;28.63;;;;;;;5.39;74.62;100040.34;2106687;28;20561;-62
2021/11/27 02:31:28;;;;;;;37.78;30.40;;;;;;;5.42;74.52;100045.00;2106761;28;20165;-62
2021/11/27 02:32:29;;;;;;;41.95;30.00;;;;;;;5.41;74.35;100055.25;2106754;28;20268;-62
2021/11/27 02:33:30;;;;;;;38.40;28.10;;;;;;;5.41;74.22;100052.50;2106708;28;20169;-62
2021/11/27 02:34:31;;;;;;;35.63;27.13;;;;;;;5.42;73.72;100054.06;2106713;28;20210;-62
2021/11/27 02:35:32;;;;;;;38.92;28.63;;;;;;;4.23;73.84;99876.97;2106597;28;20626;-62
2021/11/27 02:36:36;;;;;;;33.73;26.87;;;;;;;5.35;72.62;100061.59;2106632;28;20210;-62
2021/11/27 02:37:37;;;;;;;31.83;24.85;;;;;;;5.40;72.91;100088.63;2106190;28;20241;-62
2021/11/27 02:38:37;;;;;;;33.13;25.88;;;;;;;4.61;72.52;99932.63;2106642;28;20201;-61
2021/11/27 02:39:38;;;;;;;32.97;25.73;;;;;;;5.33;72.41;100044.75;2106254;28;20159;-62
2021/11/27 02:40:39;;;;;;;31.87;25.77;;;;;;;5.33;72.46;100050.25;2106479;28;20178;-62
2021/11/27 02:41:40;;;;;;;32.50;25.30;;;;;;;4.53;72.60;99929.16;2106665;28;20418;-62
2021/11/27 02:42:41;;;;;;;32.53;26.07;;;;;;;4.73;72.58;99971.28;2097450;28;20233;-63
2021/11/27 02:43:41;;;;;;;33.58;25.80;;;;;;;5.16;72.15;100042.97;2097659;28;20167;-62
2021/11/27 02:44:44;;;;;;;34.80;25.90;;;;;;;5.13;73.03;100050.06;2106588;28;20181;-62
2021/11/27 02:45:45;;;;;;;33.78;25.23;;;;;;;5.05;72.48;100047.81;2097404;28;20163;-62
2021/11/27 02:46:46;;;;;;;33.67;25.70;;;;;;;4.99;71.68;100041.22;2097500;28;20233;-62
2021/11/27 02:47:46;;;;;;;33.10;25.20;;;;;;;5.01;72.11;100053.34;2097080;28;20250;-62
2021/11/27 02:48:47;;;;;;;36.63;27.07;;;;;;;4.94;72.64;100050.69;2097585;28;20185;-62
2021/11/27 02:49:48;;;;;;;38.20;30.07;;;;;;;4.51;72.66;100002.09;2106106;28;20183;-62
2021/11/27 02:50:48;;;;;;;40.40;30.07;;;;;;;4.82;72.98;100044.94;2106559;28;20261;-62
2021/11/27 02:51:50;;;;;;;36.47;27.30;;;;;;;4.12;73.16;99942.13;2106498;28;20197;-62
2021/11/27 02:52:51;;;;;;;35.28;28.60;;;;;;;3.53;73.55;99844.72;2106521;28;20637;-62
2021/11/27 02:53:51;;;;;;;37.42;28.92;;;;;;;4.87;73.78;100053.47;2106548;28;20182;-63
2021/11/27 02:54:52;;;;;;;39.57;30.27;;;;;;;4.87;73.27;100047.22;2106606;28;20266;-62
2021/11/27 02:55:53;;;;;;;45.43;34.63;;;;;;;4.86;73.76;100045.66;2106356;28;20667;-62
2021/11/27 02:56:55;;;;;;;47.50;36.73;;;;;;;4.10;73.77;99944.47;2105570;28;20208;-62
2021/11/27 02:57:56;;;;;;;48.60;35.42;;;;;;;3.96;73.96;99933.59;2106277;28;20650;-62
2021/11/27 02:58:56;;;;;;;45.20;33.07;;;;;;;4.82;74.02;100064.91;2106405;28;20232;-61
2021/11/27 02:59:59;;;;;;;36.20;29.80;;;;;;;4.85;74.70;100075.06;2105936;28;20219;-62
2021/11/27 03:01:02;;;;;;;35.78;28.60;;;;;;;4.90;73.94;100071.09;2106389;28;20180;-62
2021/11/27 03:02:04;;;;;;;37.15;27.33;;;;;;;4.93;73.26;100075.78;2106479;28;20647;-62
2021/11/27 03:03:05;;;;;;;55.72;40.85;;;;;;;4.89;73.61;100070.34;2106430;28;20176;-61
2021/11/27 03:04:05;;;;;;;54.73;39.50;;;;;;;3.98;72.87;99944.97;2106297;28;20200;-62
2021/11/27 03:05:07;;;;;;;50.57;38.53;;;;;;;4.80;72.99;100072.78;2106323;28;20177;-62
2021/11/27 03:06:08;;;;;;;50.60;39.15;;;;;;;4.69;73.68;100066.59;2106246;28;20511;-62
2021/11/27 03:07:08;;;;;;;47.70;35.08;;;;;;;4.60;73.83;100063.53;2106411;28;20253;-62
2021/11/27 03:08:09;;;;;;;45.50;34.70;;;;;;;4.50;74.01;100061.66;2106022;28;20258;-62
2021/11/27 03:09:12;;;;;;;52.43;40.03;;;;;;;4.47;73.81;100059.72;2106444;28;20552;-62
2021/11/27 03:10:16;;;;;;;52.58;38.10;;;;;;;4.51;74.61;100054.22;2105913;28;20261;-62
2021/11/27 03:11:16;;;;;;;48.10;36.42;;;;;;;4.54;74.86;100058.91;2106207;28;20198;-61
2021/11/27 03:12:17;;;;;;;49.20;36.30;;;;;;;4.61;74.77;100058.84;2106595;28;20645;-62
2021/11/27 03:13:25;;;;;;;46.95;34.78;;;;;;;4.52;74.21;100042.81;2106059;28;20174;-62
2021/11/27 03:14:27;;;;;;;42.58;31.00;;;;;;;4.71;73.80;100068.91;2106356;28;20692;-62
2021/11/27 03:15:27;;;;;;;41.70;32.92;;;;;;;3.77;73.84;99939.66;2106351;28;20172;-62
2021/11/27 03:16:30;;;;;;;42.63;31.37;;;;;;;4.67;73.96;100068.19;2106132;28;20161;-62
2021/11/27 03:17:31;;;;;;;41.80;31.17;;;;;;;4.58;73.66;100060.44;2106197;28;20186;-61
2021/11/27 03:18:31;;;;;;;43.10;31.93;;;;;;;4.50;74.64;100066.38;2105995;28;20175;-62
2021/11/27 03:19:35;;;;;;;40.90;32.63;;;;;;;4.52;74.08;100061.28;2105840;28;20169;-62
2021/11/27 03:20:36;;;;;;;43.97;32.97;;;;;;;4.52;75.02;100056.53;2106228;28;20264;-62
2021/11/27 03:21:37;;;;;;;41.53;33.05;;;;;;;4.51;74.53;100055.00;2106303;28;20175;-62
2021/11/27 03:22:38;;;;;;;44.40;33.60;;;;;;;4.52;74.82;100066.75;2106277;28;20264;-62
2021/11/27 03:23:39;;;;;;;43.25;31.80;;;;;;;4.51;74.95;100051.50;2106258;28;20259;-62
2021/11/27 03:24:41;;;;;;;41.67;31.60;;;;;;;3.68;75.17;99938.53;2097226;28;20659;-61
2021/11/27 03:25:41;;;;;;;40.17;31.70;;;;;;;4.42;75.32;100057.41;2097479;28;20182;-62
2021/11/27 03:26:43;;;;;;;39.93;31.20;;;;;;;4.47;74.93;100056.97;2106148;28;20160;-62
2021/11/27 03:27:43;;;;;;;40.20;31.00;;;;;;;4.56;75.31;100062.03;2105772;28;20172;-62
2021/11/27 03:28:45;;;;;;;40.27;31.30;;;;;;;4.58;75.18;100065.13;2106242;28;20184;-62
2021/11/27 03:29:46;;;;;;;40.08;31.67;;;;;;;4.60;75.49;100060.00;2105783;28;20173;-62
2021/11/27 03:30:47;;;;;;;40.30;30.70;;;;;;;4.68;75.08;100067.00;2106273;28;20175;-62
2021/11/27 03:31:48;;;;;;;36.70;27.97;;;;;;;4.67;75.02;100057.97;2106073;28;20256;-63
2021/11/27 03:32:49;;;;;;;37.07;29.50;;;;;;;4.74;74.52;100063.44;2106216;28;20422;-62
2021/11/27 03:33:50;;;;;;;36.30;28.60;;;;;;;4.81;74.29;100068.03;2106282;28;20689;-61
2021/11/27 03:34:51;;;;;;;35.17;27.33;;;;;;;4.80;73.55;100070.03;2106284;28;20543;-62
2021/11/27 03:35:51;;;;;;;35.70;28.23;;;;;;;4.72;73.98;100086.97;2106189;28;20169;-62
2021/11/27 03:36:52;;;;;;;34.70;27.70;;;;;;;4.63;73.83;100068.25;2105939;28;20194;-62
2021/11/27 03:37:53;;;;;;;38.60;27.80;;;;;;;3.51;74.03;99899.16;2105717;28;20657;-61
2021/11/27 03:38:53;;;;;;;39.77;27.40;;;;;;;4.56;74.33;100071.03;2106223;28;20162;-62
2021/11/27 03:39:54;;;;;;;36.17;27.70;;;;;;;3.91;74.64;99971.66;2105844;28;20533;-61
2021/11/27 03:40:55;;;;;;;34.90;27.57;;;;;;;3.73;75.12;99947.13;2106052;28;20716;-61
2021/11/27 03:41:58;;;;;;;35.63;27.13;;;;;;;4.55;74.62;100074.16;2106273;28;20180;-62
2021/11/27 03:42:59;;;;;;;34.63;26.95;;;;;;;4.61;74.92;100078.06;2106029;28;20693;-62
2021/11/27 03:44:00;;;;;;;35.93;27.70;;;;;;;4.58;74.77;100076.91;2106010;28;20554;-62
2021/11/27 03:45:03;;;;;;;36.93;27.97;;;;;;;3.75;75.23;99942.00;2106030;28;20460;-62
2021/11/27 03:46:04;;;;;;;36.45;28.13;;;;;;;4.65;74.50;100070.56;2106260;28;20185;-62
2021/11/27 03:47:06;;;;;;;37.15;27.52;;;;;;;4.64;75.01;100061.56;2105912;28;20209;-62
2021/11/27 03:48:08;;;;;;;38.92;27.60;;;;;;;4.68;75.50;100067.00;2105662;28;20560;-62
2021/11/27 03:49:09;;;;;;;34.83;27.88;;;;;;;4.69;75.01;100061.13;2096949;28;20221;-63
2021/11/27 03:50:09;;;;;;;35.37;27.43;;;;;;;4.71;75.05;100055.19;2096774;28;20173;-62
2021/11/27 03:51:16;;;;;;;35.73;28.37;;;;;;;4.72;75.78;100060.28;2102628;28;20207;-62
2021/11/27 03:52:17;;;;;;;36.83;27.42;;;;;;;4.35;75.57;100023.78;2106233;28;20172;-62
2021/11/27 03:53:20;;;;;;;35.80;27.77;;;;;;;4.66;75.48;100070.16;2105951;28;20184;-63
2021/11/27 03:54:21;;;;;;;37.60;27.98;;;;;;;4.72;75.12;100081.47;2097043;28;20178;-62
2021/11/27 03:55:22;;;;;;;37.42;29.27;;;;;;;4.77;74.81;100073.56;2096981;28;20282;-62
2021/11/27 03:56:26;;;;;;;33.73;26.43;;;;;;;4.81;75.44;100068.03;2105664;28;20185;-62
2021/11/27 03:57:27;;;;;;;34.45;26.42;;;;;;;4.84;74.96;100057.06;2105695;28;20180;-62
2021/11/27 03:58:28;;;;;;;35.00;27.87;;;;;;;4.80;75.18;100058.25;2105725;28;20633;-62
2021/11/27 03:59:29;;;;;;;35.78;27.10;;;;;;;4.83;75.20;100060.97;2106012;28;20173;-62
2021/11/27 04:00:29;;;;;;;35.57;26.87;;;;;;;4.88;75.12;100060.53;2105671;28;20672;-62
2021/11/27 04:01:30;;;;;;;34.97;26.87;;;;;;;4.91;74.87;100053.44;2106044;28;20184;-62
2021/11/27 04:02:31;;;;;;;33.30;26.67;;;;;;;4.90;74.48;100054.63;2105941;28;20180;-62
2021/11/27 04:03:32;;;;;;;35.73;25.97;;;;;;;4.83;74.67;100060.97;2105873;28;20173;-61
2021/11/27 04:04:35;;;;;;;34.63;26.23;;;;;;;4.85;74.77;100055.06;2097444;28;20227;-62
2021/11/27 04:05:45;;;;;;;34.22;26.63;;;;;;;4.69;74.87;100033.69;2105972;28;20192;-62
2021/11/27 04:06:47;;;;;;;32.45;26.48;;;;;;;4.97;74.57;100066.31;2106015;28;20160;-62
2021/11/27 04:07:54;;;;;;;33.88;26.05;;;;;;;5.00;73.82;100060.03;2105469;28;20168;-62
2021/11/27 04:08:56;;;;;;;32.83;25.95;;;;;;;5.01;74.22;100055.28;2105886;28;20172;-62
2021/11/27 04:09:56;;;;;;;35.05;27.10;;;;;;;4.93;74.51;100051.09;2105525;28;20556;-62
2021/11/27 04:10:57;;;;;;;34.33;26.43;;;;;;;4.91;74.06;100056.97;2105906;28;20194;-62
2021/11/27 04:11:58;;;;;;;32.42;25.92;;;;;;;4.92;74.36;100057.78;2105978;28;20676;-63
2021/11/27 04:13:00;;;;;;;34.07;26.83;;;;;;;4.98;74.12;100061.63;2105832;28;20180;-62
2021/11/27 04:14:00;;;;;;;35.13;27.05;;;;;;;5.02;74.13;100059.63;2105909;28;20658;-62
2021/11/27 04:15:03;;;;;;;34.00;27.30;;;;;;;5.04;74.14;100065.47;2105767;28;20506;-62
2021/11/27 04:16:04;;;;;;;34.65;27.13;;;;;;;5.06;74.11;100063.88;2105754;28;20184;-63
2021/11/27 04:17:05;;;;;;;33.15;26.67;;;;;;;5.07;73.87;100062.69;2105030;28;20219;-63
2021/11/27 04:18:05;;;;;;;34.63;27.67;;;;;;;5.07;73.83;100070.94;2096452;28;20193;-62
2021/11/27 04:19:06;;;;;;;34.37;27.47;;;;;;;5.08;74.08;100069.72;2096904;28;20208;-62
2021/11/27 04:20:07;;;;;;;36.47;27.20;;;;;;;5.09;73.28;100057.59;2105459;28;20169;-62
2021/11/27 04:21:07;;;;;;;33.87;26.87;;;;;;;4.37;73.60;99952.84;2105890;28;20169;-62
2021/11/27 04:22:09;;;;;;;35.07;27.67;;;;;;;4.17;73.41;99916.22;2106030;28;20165;-62
2021/11/27 04:23:11;;;;;;;38.10;29.13;;;;;;;5.03;73.48;100067.44;2105713;28;20183;-63
2021/11/27 04:24:11;;;;;;;38.10;29.48;;;;;;;4.92;73.65;100049.53;2105992;28;20243;-62
2021/11/27 04:25:12;;;;;;;38.53;29.07;;;;;;;4.54;74.36;100020.47;2105625;28;20179;-62
2021/11/27 04:26:13;;;;;;;35.55;27.75;;;;;;;4.95;74.09;100074.19;2105957;28;20240;-62
2021/11/27 04:27:14;;;;;;;34.07;26.73;;;;;;;5.00;74.00;100067.47;2105592;28;20173;-61
2021/11/27 04:28:14;;;;;;;32.57;26.20;;;;;;;5.04;73.94;100065.47;2105717;28;20197;-62
2021/11/27 04:29:15;;;;;;;35.20;26.83;;;;;;;5.04;74.13;100073.72;2105604;28;20196;-62
2021/11/27 04:30:19;;;;;;;35.73;27.47;;;;;;;5.06;73.30;100077.59;2105494;28;20181;-62
2021/11/27 04:31:19;;;;;;;35.45;26.52;;;;;;;5.09;73.71;100081.50;2105555;28;20265;-62
2021/11/27 04:32:20;;;;;;;34.70;26.97;;;;;;;4.78;73.69;100013.97;2105829;28;20184;-62
2021/11/27 04:33:21;;;;;;;37.10;29.00;;;;;;;4.64;73.51;99998.44;2105735;28;20177;-62
2021/11/27 04:34:21;;;;;;;37.80;27.80;;;;;;;5.09;73.36;100076.81;2105883;28;20188;-62
2021/11/27 04:35:24;;;;;;;35.37;26.90;;;;;;;5.06;73.72;100074.06;2105551;28;20173;-62
2021/11/27 04:36:24;;;;;;;33.83;27.88;;;;;;;5.12;73.61;100084.22;2105724;28;20191;-62
2021/11/27 04:37:25;;;;;;;32.90;26.43;;;;;;;5.12;73.73;100086.97;2105473;28;20158;-61
2021/11/27 04:38:25;;;;;;;35.03;28.10;;;;;;;5.14;73.85;100090.06;2105302;28;20173;-63
2021/11/27 04:39:26;;;;;;;39.43;27.73;;;;;;;5.05;73.01;100064.28;2105594;28;20245;-62
2021/11/27 04:40:29;;;;;;;37.50;27.97;;;;;;;5.10;73.18;100077.56;2105164;28;20186;-62
2021/11/27 04:41:30;;;;;;;32.28;26.27;;;;;;;5.12;73.56;100080.72;2105616;28;20636;-62
2021/11/27 04:42:30;;;;;;;33.80;27.00;;;;;;;5.12;73.45;100086.97;2105904;28;20565;-62
2021/11/27 04:43:31;;;;;;;33.70;26.90;;;;;;;5.15;72.70;100088.13;2105675;28;20606;-62
2021/11/27 04:44:31;;;;;;;38.67;28.80;;;;;;;5.12;72.92;100083.44;2105665;28;20305;-62